Andover, NJ

6:08 AM EDT on March 30, 2015 (GMT -0400)
Lake Mohawk, Hillside/Springbrook | | Change Station
CLOSE
Current Station
Personal Weather Station
Location: Sparta Township, NJ
Elevation: 869 ft
Nearby Weather Stations

Elev 869 ft 41.01 °N, 74.66 °W | Updated 14 seconds ago

Snow
Snow
30.9 °F
Feels Like 31 °F
N
0.0
Wind Variable Wind from NNE
Gusts 0.0 mph

Today
High -- | Low -- °F
--% Chance of Precip.
Yesterday
High -- | Low -- °F
Precip. -- in
6:46 AM 7:21 PM
Waxing Gibbous, 78% visible
Pressure 29.89 in
Visibility 5.0 miles
Clouds Mostly Cloudy 1000 ft
Overcast 9000 ft
Windchill 31 °F
Dew Point 26 °F
Humidity 82%
Rainfall 0.00 in
Snow Depth Not available.
UV 0.0 out of 12
Pollen 7.30 out of 12
Air Quality Not available.
Flu Activity Not available.
SPECI KFWN 301003Z AUTO 00000KT 5SM -SN BR BKN010 OVC090 M01/M02 A2989 RMK AO2 PRESFR P0000 T10061022

More Conditions Fewer Conditions

Pressure 29.89 in
Visibility 5.0 miles
Clouds Mostly Cloudy 1000 ft
Overcast 9000 ft
Windchill 31 °F
Dew Point 26 °F
Humidity 82%
Rainfall 0.00 in
Snow Depth Not available.
UV 0.0 out of 12
Pollen 7.30 out of 12
Air Quality Not available.
Flu Activity Not available.
SPECI KFWN 301003Z AUTO 00000KT 5SM -SN BR BKN010 OVC090 M01/M02 A2989 RMK AO2 PRESFR P0000 T10061022

More Conditions Fewer Conditions

Nowcast | as of 5:56 am EDT on March 30, 2015

Light snow or flurries will be decreasing in intensity and coverage between now and 8 am. A coating is likely over the higher terrain.

×

10-Day Weather Forecast

Almanac

Astronomy

Mar. 30, 2015 Rise Set
Actual Time
Civil Twilight
Nautical Twilight
Astronomical Twilight
Moon
Length of Visible Light
Length of Day
Tomorrow will be .
, % of the Moon is Illuminated

Today's Extremes

State Highs State Lows

Community

WunderPhotos

Upload Photos

1,809,453 photos uploaded!

WunderBlogs® & News

Nearby

Air Quality

  Air Quality AQ Index Pollutant
Not available.

Snow Depth

Station Depth Elevation

Earthquake Activity

City Distance Mag. Time & Date
Minimum magnitude displayed is 2.5.

Coastal Water Temperatures

Place Temperature

Stations

Nearby Weather Stations

Station Location Temp. Windchill Dew Point Humidity Wind Precip. Elev Updated Type